sensor_id;sensor_type;location;lat;lon;timestamp;temperature;humidity
63260;DHT22;49390;51.380;0.098;2023-08-07T00:02:11;15.10;99.90
63260;DHT22;49390;51.380;0.098;2023-08-07T00:04:39;15.10;99.90
63260;DHT22;49390;51.380;0.098;2023-08-07T00:07:07;15.10;99.90
63260;DHT22;49390;51.380;0.098;2023-08-07T00:09:35;15.10;99.90
63260;DHT22;49390;51.380;0.098;2023-08-07T00:12:03;15.10;99.90
63260;DHT22;49390;51.380;0.098;2023-08-07T00:14:31;15.00;99.90
63260;DHT22;49390;51.380;0.098;2023-08-07T00:16:59;15.00;99.90
63260;DHT22;49390;51.380;0.098;2023-08-07T00:19:27;15.00;99.90
63260;DHT22;49390;51.380;0.098;2023-08-07T00:21:55;15.00;99.90
63260;DHT22;49390;51.380;0.098;2023-08-07T00:24:24;15.00;99.90
63260;DHT22;49390;51.380;0.098;2023-08-07T00:26:52;14.90;99.90
63260;DHT22;49390;51.380;0.098;2023-08-07T00:29:23;14.90;99.90
63260;DHT22;49390;51.380;0.098;2023-08-07T00:31:51;14.90;99.90
63260;DHT22;49390;51.380;0.098;2023-08-07T00:34:19;14.90;99.90
63260;DHT22;49390;51.380;0.098;2023-08-07T00:36:47;14.80;99.90
63260;DHT22;49390;51.380;0.098;2023-08-07T00:39:15;14.80;99.90
63260;DHT22;49390;51.380;0.098;2023-08-07T00:41:43;14.80;99.90
63260;DHT22;49390;51.380;0.098;2023-08-07T00:44:12;14.70;99.90
63260;DHT22;49390;51.380;0.098;2023-08-07T00:46:40;14.70;99.90
63260;DHT22;49390;51.380;0.098;2023-08-07T00:49:11;14.70;99.90
63260;DHT22;49390;51.380;0.098;2023-08-07T00:51:40;14.60;99.90
63260;DHT22;49390;51.380;0.098;2023-08-07T00:54:10;14.50;99.90
63260;DHT22;49390;51.380;0.098;2023-08-07T00:56:39;14.40;99.90
63260;DHT22;49390;51.380;0.098;2023-08-07T00:59:07;14.40;99.90
63260;DHT22;49390;51.380;0.098;2023-08-07T01:01:36;14.30;99.90
63260;DHT22;49390;51.380;0.098;2023-08-07T01:04:04;14.30;99.90
63260;DHT22;49390;51.380;0.098;2023-08-07T01:06:33;14.30;99.90
63260;DHT22;49390;51.380;0.098;2023-08-07T01:09:03;14.30;99.90
63260;DHT22;49390;51.380;0.098;2023-08-07T01:14:10;14.20;99.90
63260;DHT22;49390;51.380;0.098;2023-08-07T01:16:48;14.20;99.90
63260;DHT22;49390;51.380;0.098;2023-08-07T01:19:29;14.10;99.90
63260;DHT22;49390;51.380;0.098;2023-08-07T01:22:24;14.00;99.90
63260;DHT22;49390;51.380;0.098;2023-08-07T01:24:52;14.00;99.90
63260;DHT22;49390;51.380;0.098;2023-08-07T01:35:14;13.80;99.90
63260;DHT22;49390;51.380;0.098;2023-08-07T01:37:45;13.80;99.90
63260;DHT22;49390;51.380;0.098;2023-08-07T01:40:15;13.70;99.90
63260;DHT22;49390;51.380;0.098;2023-08-07T01:42:44;13.60;99.90
63260;DHT22;49390;51.380;0.098;2023-08-07T01:45:13;13.60;99.90
63260;DHT22;49390;51.380;0.098;2023-08-07T01:47:41;13.70;99.90
63260;DHT22;49390;51.380;0.098;2023-08-07T01:50:09;13.70;99.90
63260;DHT22;49390;51.380;0.098;2023-08-07T01:52:40;13.70;99.90
63260;DHT22;49390;51.380;0.098;2023-08-07T01:55:08;13.70;99.90
63260;DHT22;49390;51.380;0.098;2023-08-07T01:57:36;13.70;99.90
63260;DHT22;49390;51.380;0.098;2023-08-07T02:00:05;13.70;99.90
63260;DHT22;49390;51.380;0.098;2023-08-07T02:02:41;13.70;99.90
63260;DHT22;49390;51.380;0.098;2023-08-07T02:05:10;13.70;99.90
63260;DHT22;49390;51.380;0.098;2023-08-07T02:07:38;13.70;99.90
63260;DHT22;49390;51.380;0.098;2023-08-07T02:10:06;13.70;99.90
63260;DHT22;49390;51.380;0.098;2023-08-07T02:12:36;13.70;99.90
63260;DHT22;49390;51.380;0.098;2023-08-07T02:15:05;13.70;99.90
63260;DHT22;49390;51.380;0.098;2023-08-07T02:17:34;13.70;99.90
63260;DHT22;49390;51.380;0.098;2023-08-07T02:20:06;13.70;99.90
63260;DHT22;49390;51.380;0.098;2023-08-07T02:22:34;13.70;99.90
63260;DHT22;49390;51.380;0.098;2023-08-07T02:25:02;13.70;99.90
63260;DHT22;49390;51.380;0.098;2023-08-07T02:27:33;13.60;99.90
63260;DHT22;49390;51.380;0.098;2023-08-07T02:30:01;13.60;99.90
63260;DHT22;49390;51.380;0.098;2023-08-07T02:32:31;13.60;99.90
63260;DHT22;49390;51.380;0.098;2023-08-07T02:34:59;13.50;99.90
63260;DHT22;49390;51.380;0.098;2023-08-07T02:37:27;13.50;99.90
63260;DHT22;49390;51.380;0.098;2023-08-07T02:39:55;13.50;99.90
63260;DHT22;49390;51.380;0.098;2023-08-07T02:42:26;13.50;99.90
63260;DHT22;49390;51.380;0.098;2023-08-07T02:44:54;13.50;99.90
63260;DHT22;49390;51.380;0.098;2023-08-07T02:47:22;13.50;99.90
63260;DHT22;49390;51.380;0.098;2023-08-07T02:49:50;13.40;99.90
63260;DHT22;49390;51.380;0.098;2023-08-07T02:52:18;13.40;99.90
63260;DHT22;49390;51.380;0.098;2023-08-07T02:54:46;13.40;99.90
63260;DHT22;49390;51.380;0.098;2023-08-07T02:57:14;13.30;99.90
63260;DHT22;49390;51.380;0.098;2023-08-07T02:59:43;13.30;99.90
63260;DHT22;49390;51.380;0.098;2023-08-07T03:02:11;13.30;99.90
63260;DHT22;49390;51.380;0.098;2023-08-07T03:04:39;13.30;99.90
63260;DHT22;49390;51.380;0.098;2023-08-07T03:07:07;13.30;99.90
63260;DHT22;49390;51.380;0.098;2023-08-07T03:09:35;13.20;99.90
63260;DHT22;49390;51.380;0.098;2023-08-07T03:12:04;13.20;99.90
63260;DHT22;49390;51.380;0.098;2023-08-07T03:14:32;13.20;99.90
63260;DHT22;49390;51.380;0.098;2023-08-07T03:17:00;13.20;99.90
63260;DHT22;49390;51.380;0.098;2023-08-07T03:19:28;13.10;99.90
63260;DHT22;49390;51.380;0.098;2023-08-07T03:21:56;13.10;99.90
63260;DHT22;49390;51.380;0.098;2023-08-07T03:24:25;13.10;99.90
63260;DHT22;49390;51.380;0.098;2023-08-07T03:26:53;13.10;99.90
63260;DHT22;49390;51.380;0.098;2023-08-07T03:29:21;13.10;99.90
63260;DHT22;49390;51.380;0.098;2023-08-07T03:31:50;13.10;99.90
63260;DHT22;49390;51.380;0.098;2023-08-07T03:34:18;13.00;99.90
63260;DHT22;49390;51.380;0.098;2023-08-07T03:36:49;13.00;99.90
63260;DHT22;49390;51.380;0.098;2023-08-07T03:39:17;13.00;99.90
63260;DHT22;49390;51.380;0.098;2023-08-07T03:41:48;12.90;99.90
63260;DHT22;49390;51.380;0.098;2023-08-07T03:44:18;12.90;99.90
63260;DHT22;49390;51.380;0.098;2023-08-07T03:46:46;12.90;99.90
63260;DHT22;49390;51.380;0.098;2023-08-07T03:49:14;12.90;99.90
63260;DHT22;49390;51.380;0.098;2023-08-07T03:51:42;12.90;99.90
63260;DHT22;49390;51.380;0.098;2023-08-07T03:54:11;12.90;99.90
63260;DHT22;49390;51.380;0.098;2023-08-07T03:56:38;12.90;99.90
63260;DHT22;49390;51.380;0.098;2023-08-07T03:59:06;12.90;99.90
63260;DHT22;49390;51.380;0.098;2023-08-07T04:01:35;12.90;99.90
63260;DHT22;49390;51.380;0.098;2023-08-07T04:04:06;12.90;99.90
63260;DHT22;49390;51.380;0.098;2023-08-07T04:06:34;12.90;99.90
63260;DHT22;49390;51.380;0.098;2023-08-07T04:09:02;12.90;99.90
63260;DHT22;49390;51.380;0.098;2023-08-07T04:11:31;12.90;99.90
63260;DHT22;49390;51.380;0.098;2023-08-07T04:14:03;12.80;99.90
63260;DHT22;49390;51.380;0.098;2023-08-07T04:16:32;12.80;99.90
63260;DHT22;49390;51.380;0.098;2023-08-07T04:19:00;12.70;99.90
63260;DHT22;49390;51.380;0.098;2023-08-07T04:21:29;12.70;99.90
63260;DHT22;49390;51.380;0.098;2023-08-07T04:23:57;12.60;99.90
63260;DHT22;49390;51.380;0.098;2023-08-07T04:26:27;12.60;99.90
63260;DHT22;49390;51.380;0.098;2023-08-07T04:28:55;12.60;99.90
63260;DHT22;49390;51.380;0.098;2023-08-07T04:31:23;12.60;99.90
63260;DHT22;49390;51.380;0.098;2023-08-07T04:33:51;12.50;99.90
63260;DHT22;49390;51.380;0.098;2023-08-07T04:38:33;12.50;99.90
63260;DHT22;49390;51.380;0.098;2023-08-07T04:41:01;12.50;99.90
63260;DHT22;49390;51.380;0.098;2023-08-07T04:43:31;12.50;99.90
63260;DHT22;49390;51.380;0.098;2023-08-07T04:46:00;12.40;99.90
63260;DHT22;49390;51.380;0.098;2023-08-07T04:48:30;12.40;99.90
63260;DHT22;49390;51.380;0.098;2023-08-07T04:50:59;12.40;99.90
63260;DHT22;49390;51.380;0.098;2023-08-07T04:53:27;12.40;99.90
63260;DHT22;49390;51.380;0.098;2023-08-07T04:55:59;12.40;99.90
63260;DHT22;49390;51.380;0.098;2023-08-07T04:58:27;12.40;99.90
63260;DHT22;49390;51.380;0.098;2023-08-07T05:00:58;12.40;99.90
63260;DHT22;49390;51.380;0.098;2023-08-07T05:03:27;12.40;99.90
63260;DHT22;49390;51.380;0.098;2023-08-07T05:05:59;12.50;99.90
63260;DHT22;49390;51.380;0.098;2023-08-07T05:08:27;12.50;99.90
63260;DHT22;49390;51.380;0.098;2023-08-07T05:10:58;12.50;99.90
63260;DHT22;49390;51.380;0.098;2023-08-07T05:13:26;12.50;99.90
63260;DHT22;49390;51.380;0.098;2023-08-07T05:15:54;12.50;99.90
63260;DHT22;49390;51.380;0.098;2023-08-07T05:18:22;12.60;99.90
63260;DHT22;49390;51.380;0.098;2023-08-07T05:20:50;12.60;99.90
63260;DHT22;49390;51.380;0.098;2023-08-07T05:23:18;12.60;99.90
63260;DHT22;49390;51.380;0.098;2023-08-07T05:25:47;12.60;99.90
63260;DHT22;49390;51.380;0.098;2023-08-07T05:28:16;12.60;99.90
63260;DHT22;49390;51.380;0.098;2023-08-07T05:30:45;12.70;99.90
63260;DHT22;49390;51.380;0.098;2023-08-07T05:33:12;12.70;99.90
63260;DHT22;49390;51.380;0.098;2023-08-07T05:35:43;12.70;99.90
63260;DHT22;49390;51.380;0.098;2023-08-07T05:38:11;12.80;99.90
63260;DHT22;49390;51.380;0.098;2023-08-07T05:40:39;12.80;99.90
63260;DHT22;49390;51.380;0.098;2023-08-07T05:43:08;12.90;99.90
63260;DHT22;49390;51.380;0.098;2023-08-07T05:45:36;12.90;99.90
63260;DHT22;49390;51.380;0.098;2023-08-07T05:48:05;12.90;99.90
63260;DHT22;49390;51.380;0.098;2023-08-07T05:50:34;12.90;99.90
63260;DHT22;49390;51.380;0.098;2023-08-07T05:53:02;13.00;99.90
63260;DHT22;49390;51.380;0.098;2023-08-07T05:55:31;13.00;99.90
63260;DHT22;49390;51.380;0.098;2023-08-07T05:57:59;13.00;99.90
63260;DHT22;49390;51.380;0.098;2023-08-07T06:00:27;13.10;99.90
63260;DHT22;49390;51.380;0.098;2023-08-07T06:02:56;13.10;99.90
63260;DHT22;49390;51.380;0.098;2023-08-07T06:05:25;13.20;99.90
63260;DHT22;49390;51.380;0.098;2023-08-07T06:07:55;13.20;99.90
63260;DHT22;49390;51.380;0.098;2023-08-07T06:10:23;13.20;99.90
63260;DHT22;49390;51.380;0.098;2023-08-07T06:12:52;13.30;99.90
63260;DHT22;49390;51.380;0.098;2023-08-07T06:15:25;13.40;99.90
63260;DHT22;49390;51.380;0.098;2023-08-07T06:17:53;13.40;99.90
63260;DHT22;49390;51.380;0.098;2023-08-07T06:20:21;13.40;99.90
63260;DHT22;49390;51.380;0.098;2023-08-07T06:22:49;13.50;99.90
63260;DHT22;49390;51.380;0.098;2023-08-07T06:25:17;13.50;99.90
63260;DHT22;49390;51.380;0.098;2023-08-07T06:27:47;13.50;99.90
63260;DHT22;49390;51.380;0.098;2023-08-07T06:30:15;13.60;99.90
63260;DHT22;49390;51.380;0.098;2023-08-07T06:32:43;13.70;99.90
63260;DHT22;49390;51.380;0.098;2023-08-07T06:35:14;13.70;99.90
63260;DHT22;49390;51.380;0.098;2023-08-07T06:37:42;13.80;99.90
63260;DHT22;49390;51.380;0.098;2023-08-07T06:40:12;13.90;99.90
63260;DHT22;49390;51.380;0.098;2023-08-07T06:42:40;14.00;99.90
63260;DHT22;49390;51.380;0.098;2023-08-07T06:45:09;14.00;99.90
63260;DHT22;49390;51.380;0.098;2023-08-07T06:47:37;14.10;99.90
63260;DHT22;49390;51.380;0.098;2023-08-07T06:50:05;14.10;99.90
63260;DHT22;49390;51.380;0.098;2023-08-07T06:52:33;14.20;99.90
63260;DHT22;49390;51.380;0.098;2023-08-07T06:55:02;14.30;99.90
63260;DHT22;49390;51.380;0.098;2023-08-07T06:57:29;14.30;99.90
63260;DHT22;49390;51.380;0.098;2023-08-07T06:59:58;14.40;99.90
63260;DHT22;49390;51.380;0.098;2023-08-07T07:02:25;14.50;99.90
63260;DHT22;49390;51.380;0.098;2023-08-07T07:04:54;14.60;99.90
63260;DHT22;49390;51.380;0.098;2023-08-07T07:07:22;14.70;99.90
63260;DHT22;49390;51.380;0.098;2023-08-07T07:09:50;14.80;99.90
63260;DHT22;49390;51.380;0.098;2023-08-07T07:12:18;15.10;99.90
63260;DHT22;49390;51.380;0.098;2023-08-07T07:14:46;15.40;99.90
63260;DHT22;49390;51.380;0.098;2023-08-07T07:17:14;15.80;99.90
63260;DHT22;49390;51.380;0.098;2023-08-07T07:22:06;16.70;99.90
63260;DHT22;49390;51.380;0.098;2023-08-07T07:24:36;17.10;99.90
63260;DHT22;49390;51.380;0.098;2023-08-07T07:27:04;17.50;99.90
63260;DHT22;49390;51.380;0.098;2023-08-07T07:29:32;18.00;99.90
63260;DHT22;49390;51.380;0.098;2023-08-07T07:32:00;18.40;99.90
63260;DHT22;49390;51.380;0.098;2023-08-07T07:34:29;18.90;99.90
63260;DHT22;49390;51.380;0.098;2023-08-07T07:36:57;19.30;99.90
63260;DHT22;49390;51.380;0.098;2023-08-07T07:39:25;19.70;99.90
63260;DHT22;49390;51.380;0.098;2023-08-07T07:41:53;20.10;99.90
63260;DHT22;49390;51.380;0.098;2023-08-07T07:44:23;20.40;99.90
63260;DHT22;49390;51.380;0.098;2023-08-07T07:48:36;20.80;99.90
63260;DHT22;49390;51.380;0.098;2023-08-07T07:51:05;21.20;99.90
63260;DHT22;49390;51.380;0.098;2023-08-07T07:53:33;21.40;99.90
63260;DHT22;49390;51.380;0.098;2023-08-07T07:56:01;21.70;97.60
63260;DHT22;49390;51.380;0.098;2023-08-07T07:58:29;21.90;95.60
63260;DHT22;49390;51.380;0.098;2023-08-07T08:00:57;22.10;93.30
63260;DHT22;49390;51.380;0.098;2023-08-07T08:03:27;22.30;91.70
63260;DHT22;49390;51.380;0.098;2023-08-07T08:05:56;22.50;90.30
63260;DHT22;49390;51.380;0.098;2023-08-07T08:08:24;22.60;87.70
63260;DHT22;49390;51.380;0.098;2023-08-07T08:10:57;22.70;85.30
63260;DHT22;49390;51.380;0.098;2023-08-07T08:13:26;22.90;82.70
63260;DHT22;49390;51.380;0.098;2023-08-07T08:15:54;23.00;80.60
63260;DHT22;49390;51.380;0.098;2023-08-07T08:18:22;23.10;79.00
63260;DHT22;49390;51.380;0.098;2023-08-07T08:20:51;23.20;77.80
63260;DHT22;49390;51.380;0.098;2023-08-07T08:23:19;23.30;76.00
63260;DHT22;49390;51.380;0.098;2023-08-07T08:25:48;23.40;74.70
63260;DHT22;49390;51.380;0.098;2023-08-07T08:28:17;23.40;74.10
63260;DHT22;49390;51.380;0.098;2023-08-07T08:30:45;23.50;73.30
63260;DHT22;49390;51.380;0.098;2023-08-07T08:33:13;23.50;72.80
63260;DHT22;49390;51.380;0.098;2023-08-07T08:35:42;23.70;72.20
63260;DHT22;49390;51.380;0.098;2023-08-07T08:38:10;23.70;70.90
63260;DHT22;49390;51.380;0.098;2023-08-07T08:40:41;23.90;69.40
63260;DHT22;49390;51.380;0.098;2023-08-07T08:43:09;23.90;68.40
63260;DHT22;49390;51.380;0.098;2023-08-07T08:45:41;24.00;67.50
63260;DHT22;49390;51.380;0.098;2023-08-07T08:48:12;24.10;66.70
63260;DHT22;49390;51.380;0.098;2023-08-07T08:50:52;24.00;65.90
63260;DHT22;49390;51.380;0.098;2023-08-07T08:53:20;24.10;65.20
63260;DHT22;49390;51.380;0.098;2023-08-07T08:55:49;24.20;64.50
63260;DHT22;49390;51.380;0.098;2023-08-07T08:58:20;24.30;63.80
63260;DHT22;49390;51.380;0.098;2023-08-07T09:00:49;24.40;63.30
63260;DHT22;49390;51.380;0.098;2023-08-07T09:03:18;24.40;62.20
63260;DHT22;49390;51.380;0.098;2023-08-07T09:05:47;24.50;61.50
63260;DHT22;49390;51.380;0.098;2023-08-07T09:08:17;24.60;60.90
63260;DHT22;49390;51.380;0.098;2023-08-07T09:10:45;24.60;60.70
63260;DHT22;49390;51.380;0.098;2023-08-07T09:13:17;24.60;60.30
63260;DHT22;49390;51.380;0.098;2023-08-07T09:15:50;24.50;60.10
63260;DHT22;49390;51.380;0.098;2023-08-07T09:18:19;24.20;60.40
63260;DHT22;49390;51.380;0.098;2023-08-07T09:20:48;23.90;61.10
63260;DHT22;49390;51.380;0.098;2023-08-07T09:23:16;23.80;61.20
63260;DHT22;49390;51.380;0.098;2023-08-07T09:25:45;23.70;61.00
63260;DHT22;49390;51.380;0.098;2023-08-07T09:28:13;23.60;61.10
63260;DHT22;49390;51.380;0.098;2023-08-07T09:30:42;23.60;61.30
63260;DHT22;49390;51.380;0.098;2023-08-07T09:33:12;23.60;60.70
63260;DHT22;49390;51.380;0.098;2023-08-07T09:35:40;23.50;60.80
63260;DHT22;49390;51.380;0.098;2023-08-07T09:38:09;23.30;61.10
63260;DHT22;49390;51.380;0.098;2023-08-07T09:40:37;23.30;61.10
63260;DHT22;49390;51.380;0.098;2023-08-07T09:43:09;23.30;61.00
63260;DHT22;49390;51.380;0.098;2023-08-07T09:45:40;23.30;60.90
63260;DHT22;49390;51.380;0.098;2023-08-07T09:48:08;23.30;60.50
63260;DHT22;49390;51.380;0.098;2023-08-07T09:50:36;23.30;60.10
63260;DHT22;49390;51.380;0.098;2023-08-07T09:53:04;23.30;60.00
63260;DHT22;49390;51.380;0.098;2023-08-07T09:55:33;23.40;59.80
63260;DHT22;49390;51.380;0.098;2023-08-07T09:58:01;23.50;59.70
63260;DHT22;49390;51.380;0.098;2023-08-07T10:00:34;23.30;59.70
63260;DHT22;49390;51.380;0.098;2023-08-07T10:03:03;23.10;60.00
63260;DHT22;49390;51.380;0.098;2023-08-07T10:05:33;23.00;60.30
63260;DHT22;49390;51.380;0.098;2023-08-07T10:08:02;23.00;60.60
63260;DHT22;49390;51.380;0.098;2023-08-07T10:10:32;23.00;60.30
63260;DHT22;49390;51.380;0.098;2023-08-07T10:13:04;23.20;59.80
63260;DHT22;49390;51.380;0.098;2023-08-07T10:15:33;23.30;59.50
63260;DHT22;49390;51.380;0.098;2023-08-07T10:18:02;23.40;59.20
63260;DHT22;49390;51.380;0.098;2023-08-07T10:20:33;23.50;58.60
63260;DHT22;49390;51.380;0.098;2023-08-07T10:23:07;23.50;58.60
63260;DHT22;49390;51.380;0.098;2023-08-07T10:25:41;23.50;58.40
63260;DHT22;49390;51.380;0.098;2023-08-07T10:28:13;23.40;58.00
63260;DHT22;49390;51.380;0.098;2023-08-07T10:30:43;23.30;58.20
63260;DHT22;49390;51.380;0.098;2023-08-07T10:33:14;23.30;58.30
63260;DHT22;49390;51.380;0.098;2023-08-07T10:35:47;23.20;58.50
63260;DHT22;49390;51.380;0.098;2023-08-07T10:38:20;23.10;58.70
63260;DHT22;49390;51.380;0.098;2023-08-07T10:41:10;23.10;58.90
63260;DHT22;49390;51.380;0.098;2023-08-07T10:43:41;23.10;58.80
63260;DHT22;49390;51.380;0.098;2023-08-07T10:46:15;23.10;58.70
63260;DHT22;49390;51.380;0.098;2023-08-07T10:48:44;23.00;59.10
63260;DHT22;49390;51.380;0.098;2023-08-07T10:51:19;22.80;58.10
63260;DHT22;49390;51.380;0.098;2023-08-07T10:53:48;22.60;58.00
63260;DHT22;49390;51.380;0.098;2023-08-07T10:56:32;22.40;58.40
63260;DHT22;49390;51.380;0.098;2023-08-07T10:59:11;22.30;58.90
63260;DHT22;49390;51.380;0.098;2023-08-07T11:01:42;22.20;59.30
63260;DHT22;49390;51.380;0.098;2023-08-07T11:04:12;22.10;59.70
63260;DHT22;49390;51.380;0.098;2023-08-07T11:06:43;22.10;59.90
63260;DHT22;49390;51.380;0.098;2023-08-07T11:09:12;22.10;60.20
63260;DHT22;49390;51.380;0.098;2023-08-07T11:11:45;22.00;60.20
63260;DHT22;49390;51.380;0.098;2023-08-07T11:14:16;22.00;60.30
63260;DHT22;49390;51.380;0.098;2023-08-07T11:16:45;22.00;60.10
63260;DHT22;49390;51.380;0.098;2023-08-07T11:19:15;22.00;60.00
63260;DHT22;49390;51.380;0.098;2023-08-07T11:21:44;22.00;59.90
63260;DHT22;49390;51.380;0.098;2023-08-07T11:24:13;22.10;60.00
63260;DHT22;49390;51.380;0.098;2023-08-07T11:26:44;22.20;59.80
63260;DHT22;49390;51.380;0.098;2023-08-07T11:29:19;22.20;59.40
63260;DHT22;49390;51.380;0.098;2023-08-07T11:31:47;22.30;59.20
63260;DHT22;49390;51.380;0.098;2023-08-07T11:34:17;22.40;59.20
63260;DHT22;49390;51.380;0.098;2023-08-07T11:36:46;22.50;58.60
63260;DHT22;49390;51.380;0.098;2023-08-07T11:39:15;22.60;58.30
63260;DHT22;49390;51.380;0.098;2023-08-07T11:41:45;22.60;57.80
63260;DHT22;49390;51.380;0.098;2023-08-07T11:44:13;22.70;57.70
63260;DHT22;49390;51.380;0.098;2023-08-07T11:46:43;22.70;57.30
63260;DHT22;49390;51.380;0.098;2023-08-07T11:49:12;22.70;56.70
63260;DHT22;49390;51.380;0.098;2023-08-07T11:51:48;22.70;56.70
63260;DHT22;49390;51.380;0.098;2023-08-07T11:54:17;22.80;56.30
63260;DHT22;49390;51.380;0.098;2023-08-07T11:56:45;22.90;56.00
63260;DHT22;49390;51.380;0.098;2023-08-07T11:59:16;23.00;55.90
63260;DHT22;49390;51.380;0.098;2023-08-07T12:01:46;23.10;55.50
63260;DHT22;49390;51.380;0.098;2023-08-07T12:04:17;23.20;54.80
63260;DHT22;49390;51.380;0.098;2023-08-07T12:06:56;23.10;54.60
63260;DHT22;49390;51.380;0.098;2023-08-07T12:09:28;23.30;54.50
63260;DHT22;49390;51.380;0.098;2023-08-07T12:11:59;23.40;54.10
63260;DHT22;49390;51.380;0.098;2023-08-07T12:14:30;23.50;53.60
63260;DHT22;49390;51.380;0.098;2023-08-07T12:17:02;23.60;53.70
63260;DHT22;49390;51.380;0.098;2023-08-07T12:19:38;23.50;53.00
63260;DHT22;49390;51.380;0.098;2023-08-07T12:22:10;23.30;52.90
63260;DHT22;49390;51.380;0.098;2023-08-07T12:24:40;23.20;52.80
63260;DHT22;49390;51.380;0.098;2023-08-07T12:27:09;23.10;53.00
63260;DHT22;49390;51.380;0.098;2023-08-07T12:29:37;23.10;53.40
63260;DHT22;49390;51.380;0.098;2023-08-07T12:32:06;23.20;53.30
63260;DHT22;49390;51.380;0.098;2023-08-07T12:34:34;23.50;53.10
63260;DHT22;49390;51.380;0.098;2023-08-07T12:37:22;23.50;52.80
63260;DHT22;49390;51.380;0.098;2023-08-07T12:39:50;23.60;52.50
63260;DHT22;49390;51.380;0.098;2023-08-07T12:42:22;23.60;53.10
63260;DHT22;49390;51.380;0.098;2023-08-07T12:44:52;23.50;52.50
63260;DHT22;49390;51.380;0.098;2023-08-07T12:47:20;23.50;52.60
63260;DHT22;49390;51.380;0.098;2023-08-07T12:49:51;23.40;52.70
63260;DHT22;49390;51.380;0.098;2023-08-07T12:52:20;23.30;52.80
63260;DHT22;49390;51.380;0.098;2023-08-07T12:54:48;23.30;53.10
63260;DHT22;49390;51.380;0.098;2023-08-07T12:57:17;23.20;53.20
63260;DHT22;49390;51.380;0.098;2023-08-07T12:59:44;23.10;53.40
63260;DHT22;49390;51.380;0.098;2023-08-07T13:02:13;23.10;53.40
63260;DHT22;49390;51.380;0.098;2023-08-07T13:04:41;23.10;53.00
63260;DHT22;49390;51.380;0.098;2023-08-07T13:07:11;23.10;52.70
63260;DHT22;49390;51.380;0.098;2023-08-07T13:09:40;23.10;52.70
63260;DHT22;49390;51.380;0.098;2023-08-07T13:12:11;23.10;52.30
63260;DHT22;49390;51.380;0.098;2023-08-07T13:14:39;23.10;52.00
63260;DHT22;49390;51.380;0.098;2023-08-07T13:17:07;23.10;52.70
63260;DHT22;49390;51.380;0.098;2023-08-07T13:19:35;23.10;51.80
63260;DHT22;49390;51.380;0.098;2023-08-07T13:22:04;23.10;51.70
63260;DHT22;49390;51.380;0.098;2023-08-07T13:24:32;23.10;51.60
63260;DHT22;49390;51.380;0.098;2023-08-07T13:27:00;23.20;51.70
63260;DHT22;49390;51.380;0.098;2023-08-07T13:29:28;23.30;51.80
63260;DHT22;49390;51.380;0.098;2023-08-07T13:31:57;23.40;51.60
63260;DHT22;49390;51.380;0.098;2023-08-07T13:34:26;23.60;51.30
63260;DHT22;49390;51.380;0.098;2023-08-07T13:36:55;23.90;51.50
63260;DHT22;49390;51.380;0.098;2023-08-07T13:39:23;24.10;49.80
63260;DHT22;49390;51.380;0.098;2023-08-07T13:41:52;24.30;49.00
63260;DHT22;49390;51.380;0.098;2023-08-07T13:44:20;24.30;49.00
63260;DHT22;49390;51.380;0.098;2023-08-07T13:46:49;24.20;49.20
63260;DHT22;49390;51.380;0.098;2023-08-07T13:49:17;24.10;49.30
63260;DHT22;49390;51.380;0.098;2023-08-07T13:51:46;24.10;49.20
63260;DHT22;49390;51.380;0.098;2023-08-07T13:54:14;24.20;48.70
63260;DHT22;49390;51.380;0.098;2023-08-07T13:56:42;24.30;48.60
63260;DHT22;49390;51.380;0.098;2023-08-07T13:59:10;24.40;48.40
63260;DHT22;49390;51.380;0.098;2023-08-07T14:01:38;24.50;49.00
63260;DHT22;49390;51.380;0.098;2023-08-07T14:04:06;24.50;47.40
63260;DHT22;49390;51.380;0.098;2023-08-07T14:06:35;24.50;47.30
63260;DHT22;49390;51.380;0.098;2023-08-07T14:09:03;24.30;47.20
63260;DHT22;49390;51.380;0.098;2023-08-07T14:11:31;24.20;47.50
63260;DHT22;49390;51.380;0.098;2023-08-07T14:13:59;24.10;47.80
63260;DHT22;49390;51.380;0.098;2023-08-07T14:16:27;24.00;47.90
63260;DHT22;49390;51.380;0.098;2023-08-07T14:18:55;23.90;48.20
63260;DHT22;49390;51.380;0.098;2023-08-07T14:21:24;23.80;48.50
63260;DHT22;49390;51.380;0.098;2023-08-07T14:23:52;23.90;49.00
63260;DHT22;49390;51.380;0.098;2023-08-07T14:26:21;24.00;48.00
63260;DHT22;49390;51.380;0.098;2023-08-07T14:28:49;24.00;47.60
63260;DHT22;49390;51.380;0.098;2023-08-07T14:31:17;24.10;46.90
63260;DHT22;49390;51.380;0.098;2023-08-07T14:33:48;24.20;46.70
63260;DHT22;49390;51.380;0.098;2023-08-07T14:36:17;24.30;47.40
63260;DHT22;49390;51.380;0.098;2023-08-07T14:38:45;24.40;46.20
63260;DHT22;49390;51.380;0.098;2023-08-07T14:41:13;24.60;46.10
63260;DHT22;49390;51.380;0.098;2023-08-07T14:43:41;24.70;45.80
63260;DHT22;49390;51.380;0.098;2023-08-07T14:46:09;24.80;45.30
63260;DHT22;49390;51.380;0.098;2023-08-07T14:48:37;24.80;45.00
63260;DHT22;49390;51.380;0.098;2023-08-07T14:51:05;24.80;45.00
63260;DHT22;49390;51.380;0.098;2023-08-07T14:53:33;24.80;45.10
63260;DHT22;49390;51.380;0.098;2023-08-07T14:56:03;24.80;45.10
63260;DHT22;49390;51.380;0.098;2023-08-07T14:58:31;24.80;45.20
63260;DHT22;49390;51.380;0.098;2023-08-07T15:01:00;24.80;45.30
63260;DHT22;49390;51.380;0.098;2023-08-07T15:03:30;24.80;45.60
63260;DHT22;49390;51.380;0.098;2023-08-07T15:05:59;24.70;45.60
63260;DHT22;49390;51.380;0.098;2023-08-07T15:08:27;24.70;45.30
63260;DHT22;49390;51.380;0.098;2023-08-07T15:10:55;24.60;45.30
63260;DHT22;49390;51.380;0.098;2023-08-07T15:13:23;24.60;45.40
63260;DHT22;49390;51.380;0.098;2023-08-07T15:15:52;24.60;45.70
63260;DHT22;49390;51.380;0.098;2023-08-07T15:18:20;24.50;46.10
63260;DHT22;49390;51.380;0.098;2023-08-07T15:20:48;24.30;46.10
63260;DHT22;49390;51.380;0.098;2023-08-07T15:23:17;24.20;46.30
63260;DHT22;49390;51.380;0.098;2023-08-07T15:25:45;24.00;46.40
63260;DHT22;49390;51.380;0.098;2023-08-07T15:28:13;24.00;46.60
63260;DHT22;49390;51.380;0.098;2023-08-07T15:30:47;23.90;46.80
63260;DHT22;49390;51.380;0.098;2023-08-07T15:33:16;23.80;47.00
63260;DHT22;49390;51.380;0.098;2023-08-07T15:35:45;23.70;47.10
63260;DHT22;49390;51.380;0.098;2023-08-07T15:38:13;23.60;47.00
63260;DHT22;49390;51.380;0.098;2023-08-07T15:40:42;23.60;47.70
63260;DHT22;49390;51.380;0.098;2023-08-07T15:43:10;23.50;46.90
63260;DHT22;49390;51.380;0.098;2023-08-07T15:45:38;23.40;47.10
63260;DHT22;49390;51.380;0.098;2023-08-07T15:48:06;23.40;47.40
63260;DHT22;49390;51.380;0.098;2023-08-07T15:50:35;23.40;47.70
63260;DHT22;49390;51.380;0.098;2023-08-07T15:53:06;23.30;47.80
63260;DHT22;49390;51.380;0.098;2023-08-07T15:55:34;23.40;48.00
63260;DHT22;49390;51.380;0.098;2023-08-07T15:58:06;23.40;48.10
63260;DHT22;49390;51.380;0.098;2023-08-07T16:00:35;23.40;48.00